Time;durP1;ratioP1;P1;durP2;ratioP2;P2;SDS_P1;SDS_P2;PMS_P1;PMS_P2;Temp;Humidity;BMP_temperature;BMP_pressure;BME280_temperature;BME280_humidity;BME280_pressure;Samples;Min_cycle;Max_cycle;Signal;HPM_P1;HPM_P2
2022/04/06 00:00:31;;;;;;;12.80;9.70;;;10.50;87.40;;;;;;5068133;28;20028;-77
2022/04/06 00:02:57;;;;;;;14.85;10.73;;;10.40;87.40;;;;;;5069276;28;20024;-75
2022/04/06 00:05:23;;;;;;;14.50;10.25;;;10.40;87.40;;;;;;5081361;28;20177;-75
2022/04/06 00:07:49;;;;;;;13.38;9.93;;;10.40;87.40;;;;;;5087932;28;20389;-75
2022/04/06 00:10:14;;;;;;;13.10;10.40;;;10.40;87.30;;;;;;5088245;28;20039;-75
2022/04/06 00:12:40;;;;;;;14.85;10.15;;;10.40;87.30;;;;;;5089392;28;20036;-76
2022/04/06 00:15:09;;;;;;;13.45;9.90;;;10.40;87.40;;;;;;5089648;28;20158;-78
2022/04/06 00:17:35;;;;;;;13.63;9.90;;;10.40;87.90;;;;;;5089244;28;20039;-76
2022/04/06 00:20:01;;;;;;;13.90;10.43;;;10.40;87.50;;;;;;5087687;28;20127;-76
2022/04/06 00:22:27;;;;;;;13.98;9.93;;;10.40;87.40;;;;;;5089217;28;20035;-75
2022/04/06 00:24:52;;;;;;;13.20;9.90;;;10.40;87.30;;;;;;5089221;28;20020;-78
2022/04/06 00:27:19;;;;;;;14.02;10.30;;;10.40;87.40;;;;;;5088928;28;20051;-75
2022/04/06 00:29:44;;;;;;;14.20;10.32;;;10.40;87.30;;;;;;5087989;28;20024;-80
2022/04/06 00:32:10;;;;;;;15.38;10.55;;;10.40;87.40;;;;;;5089070;28;20030;-78
2022/04/06 00:37:20;;;;;;;15.27;10.63;;;10.40;87.40;;;;;;5088991;28;20222;-74
2022/04/06 00:39:46;;;;;;;15.73;11.00;;;10.40;87.50;;;;;;5087745;28;20400;-77
2022/04/06 00:42:11;;;;;;;15.10;11.18;;;10.40;87.40;;;;;;5087132;28;20027;-76
2022/04/06 00:44:38;;;;;;;15.82;11.45;;;10.40;87.40;;;;;;5088848;28;20405;-76
2022/04/06 00:47:04;;;;;;;15.35;10.88;;;10.40;87.40;;;;;;5088343;28;20028;-80
2022/04/06 00:49:31;;;;;;;15.50;11.38;;;10.40;87.40;;;;;;5088644;28;20028;-75
2022/04/06 00:51:59;;;;;;;18.10;11.25;;;10.40;87.50;;;;;;5088599;28;20032;-73
2022/04/06 00:54:25;;;;;;;15.10;11.10;;;10.50;87.60;;;;;;5088686;28;20528;-79
2022/04/06 00:56:50;;;;;;;14.40;11.18;;;10.50;87.60;;;;;;5088461;28;20036;-74
2022/04/06 00:59:16;;;;;;;14.82;11.68;;;10.50;87.60;;;;;;5087173;28;20036;-77
2022/04/06 01:01:47;;;;;;;14.48;11.40;;;10.40;87.50;;;;;;5087316;28;20028;-77
2022/04/06 01:04:13;;;;;;;15.40;10.98;;;10.50;87.60;;;;;;5087119;28;20031;-75
2022/04/06 01:06:39;;;;;;;16.20;11.75;;;10.50;87.60;;;;;;5087359;28;20028;-75
2022/04/06 01:09:05;;;;;;;16.35;11.98;;;10.40;87.50;;;;;;5088488;28;20028;-76
2022/04/06 01:11:31;;;;;;;15.25;11.27;;;10.50;87.50;;;;;;5088536;28;20016;-76
2022/04/06 01:13:57;;;;;;;17.02;11.90;;;10.50;87.50;;;;;;5088775;28;20036;-77
2022/04/06 01:16:23;;;;;;;16.20;12.00;;;10.50;87.60;;;;;;5088440;28;20036;-78
2022/04/06 01:18:48;;;;;;;16.20;11.45;;;10.40;87.60;;;;;;5087247;28;20032;-75
2022/04/06 01:21:14;;;;;;;16.60;11.23;;;10.40;87.70;;;;;;5088211;28;20043;-76
2022/04/06 01:23:41;;;;;;;16.38;12.02;;;10.40;87.60;;;;;;5088530;28;20089;-78
2022/04/06 01:26:08;;;;;;;16.70;11.68;;;10.40;87.60;;;;;;5088215;28;20032;-77
2022/04/06 01:28:34;;;;;;;16.20;12.35;;;10.50;87.70;;;;;;5088289;28;20435;-75
2022/04/06 01:30:59;;;;;;;14.85;11.18;;;10.50;87.70;;;;;;5088061;28;20029;-77
2022/04/06 01:33:25;;;;;;;15.48;11.55;;;10.50;87.70;;;;;;5087351;28;20481;-75
2022/04/06 01:35:50;;;;;;;18.55;12.63;;;10.50;87.70;;;;;;5088370;28;20028;-79
2022/04/06 01:38:16;;;;;;;15.73;11.63;;;10.40;87.60;;;;;;5086590;28;20556;-75
2022/04/06 01:40:42;;;;;;;17.02;11.20;;;10.50;87.70;;;;;;5088416;28;20042;-76
2022/04/06 01:43:07;;;;;;;17.08;11.43;;;10.50;87.70;;;;;;5088041;28;20056;-75
2022/04/06 01:45:33;;;;;;;16.42;11.50;;;10.50;87.70;;;;;;5088422;28;20020;-76
2022/04/06 01:47:58;;;;;;;16.50;12.20;;;10.50;87.70;;;;;;5088151;28;20028;-76
2022/04/06 01:53:08;;;;;;;14.45;10.48;;;10.50;87.60;;;;;;5083606;28;20569;-80
2022/04/06 01:55:34;;;;;;;15.82;11.75;;;10.50;87.60;;;;;;5092028;28;20105;-74
2022/04/06 01:57:59;;;;;;;16.35;11.00;;;10.50;87.60;;;;;;5091767;28;20027;-75
2022/04/06 02:00:26;;;;;;;17.58;11.48;;;10.50;87.60;;;;;;5091880;28;20028;-77
2022/04/06 02:02:53;;;;;;;16.02;11.15;;;10.50;87.60;;;;;;5091620;28;20036;-81
2022/04/06 02:05:20;;;;;;;19.08;11.27;;;10.50;87.60;;;;;;5090605;28;20032;-74
2022/04/06 02:07:49;;;;;;;16.27;11.07;;;10.50;87.60;;;;;;5091331;28;20038;-75
2022/04/06 02:10:16;;;;;;;17.95;11.43;;;10.50;87.60;;;;;;5090280;28;20031;-76
2022/04/06 02:12:41;;;;;;;14.32;11.13;;;10.40;87.50;;;;;;5091853;28;20028;-77
2022/04/06 02:15:12;;;;;;;15.82;11.32;;;10.50;87.60;;;;;;5091604;28;20443;-76
2022/04/06 02:17:38;;;;;;;15.80;11.20;;;10.50;87.60;;;;;;5091419;28;20467;-79
2022/04/06 02:20:04;;;;;;;15.93;10.93;;;10.50;87.70;;;;;;5090108;28;20028;-75
2022/04/06 02:22:30;;;;;;;15.38;10.80;;;10.50;87.60;;;;;;5091170;28;20036;-80
2022/04/06 02:24:55;;;;;;;15.77;11.13;;;10.50;87.60;;;;;;5087445;28;20020;-75
2022/04/06 02:27:21;;;;;;;17.38;11.88;;;10.50;87.60;;;;;;5079352;28;20570;-78
2022/04/06 02:29:47;;;;;;;15.80;10.82;;;10.50;87.70;;;;;;5088879;28;20503;-74
2022/04/06 02:32:13;;;;;;;16.08;11.10;;;10.50;87.70;;;;;;5090153;28;20023;-76
2022/04/06 02:34:39;;;;;;;18.00;10.88;;;10.50;87.70;;;;;;5090014;28;20119;-78
2022/04/06 02:37:06;;;;;;;18.75;10.57;;;10.50;87.60;;;;;;5089822;28;20032;-75
2022/04/06 02:39:32;;;;;;;18.98;11.65;;;10.50;87.60;;;;;;5084090;28;20500;-75
2022/04/06 02:41:57;;;;;;;16.55;11.02;;;10.50;87.60;;;;;;5091187;28;20103;-76
2022/04/06 02:44:23;;;;;;;26.35;10.65;;;10.50;87.60;;;;;;5091051;28;20579;-77
2022/04/06 02:46:49;;;;;;;16.33;10.52;;;10.50;88.20;;;;;;5091145;28;20562;-79
2022/04/06 02:49:15;;;;;;;17.52;11.15;;;10.50;87.70;;;;;;5090790;28;20020;-77
2022/04/06 02:51:41;;;;;;;16.98;11.50;;;10.50;87.70;;;;;;5089905;28;20541;-80
2022/04/06 02:54:06;;;;;;;16.13;11.25;;;10.50;87.70;;;;;;5089732;28;20028;-74
2022/04/06 02:56:32;;;;;;;17.65;10.98;;;10.50;87.70;;;;;;5090942;28;20024;-76
2022/04/06 02:58:58;;;;;;;17.08;10.40;;;10.50;87.70;;;;;;5089987;28;20332;-75
2022/04/06 03:01:24;;;;;;;15.60;10.95;;;10.50;87.60;;;;;;5089498;28;20028;-77
2022/04/06 03:03:49;;;;;;;16.70;10.93;;;10.50;87.70;;;;;;5090748;28;20656;-75
2022/04/06 03:06:16;;;;;;;17.60;11.57;;;10.50;87.70;;;;;;5090856;28;20032;-75
2022/04/06 03:08:42;;;;;;;17.83;11.45;;;10.50;87.70;;;;;;5090668;28;20090;-75
2022/04/06 03:11:08;;;;;;;14.43;10.60;;;10.50;87.70;;;;;;5090584;28;20064;-77
2022/04/06 03:13:33;;;;;;;18.10;11.68;;;10.50;87.70;;;;;;5089930;28;20020;-75
2022/04/06 03:15:59;;;;;;;15.98;11.63;;;10.50;87.60;;;;;;5090615;28;20169;-76
2022/04/06 03:18:25;;;;;;;16.42;11.52;;;10.50;87.80;;;;;;5090013;28;20508;-77
2022/04/06 03:20:50;;;;;;;16.30;11.38;;;10.50;87.70;;;;;;5089209;28;20069;-75
2022/04/06 03:23:16;;;;;;;17.05;11.52;;;10.50;87.70;;;;;;5088914;28;20026;-79
2022/04/06 03:25:42;;;;;;;17.40;11.70;;;10.50;87.60;;;;;;5088958;28;20397;-76
2022/04/06 03:28:08;;;;;;;15.52;10.82;;;10.50;87.60;;;;;;5090064;28;20543;-79
2022/04/06 03:30:33;;;;;;;14.68;11.27;;;10.50;87.70;;;;;;5090117;28;20153;-76
2022/04/06 03:32:59;;;;;;;18.20;11.68;;;10.50;87.70;;;;;;5090169;28;20028;-77
2022/04/06 03:35:25;;;;;;;16.88;11.48;;;10.50;87.70;;;;;;5088561;28;20381;-77
2022/04/06 03:37:51;;;;;;;16.63;11.93;;;10.50;87.70;;;;;;5089926;28;20039;-75
2022/04/06 03:40:16;;;;;;;17.60;11.30;;;10.50;87.70;;;;;;5089962;28;20463;-76
2022/04/06 03:42:42;;;;;;;15.50;11.55;;;10.50;87.70;;;;;;5089764;28;20039;-79
2022/04/06 03:45:08;;;;;;;16.17;11.15;;;10.50;87.70;;;;;;5088341;28;20069;-75
2022/04/06 03:47:35;;;;;;;16.85;11.73;;;10.50;88.10;;;;;;5089840;28;20020;-75
2022/04/06 03:50:00;;;;;;;16.95;11.73;;;10.50;87.70;;;;;;5088620;28;20470;-76
2022/04/06 03:52:27;;;;;;;17.77;11.52;;;10.50;87.60;;;;;;5088595;28;20042;-75
2022/04/06 03:54:53;;;;;;;21.92;12.15;;;10.50;87.60;;;;;;5089722;28;20112;-79
2022/04/06 03:57:19;;;;;;;18.85;11.93;;;10.50;87.80;;;;;;5089343;28;20099;-77
2022/04/06 03:59:44;;;;;;;18.38;11.98;;;10.50;87.80;;;;;;5089735;28;20500;-74
2022/04/06 04:02:10;;;;;;;16.20;12.13;;;10.50;87.70;;;;;;5089317;28;20046;-77
2022/04/06 04:04:35;;;;;;;21.23;12.68;;;10.50;87.70;;;;;;5089517;28;20016;-76
2022/04/06 04:07:01;;;;;;;19.50;12.43;;;10.50;87.70;;;;;;5089350;28;20566;-76
2022/04/06 04:09:31;;;;;;;17.15;12.30;;;10.50;87.70;;;;;;5089365;28;20020;-74
2022/04/06 04:11:56;;;;;;;16.48;12.20;;;10.50;87.60;;;;;;5089022;28;20125;-79
2022/04/06 04:14:23;;;;;;;17.50;12.07;;;10.50;87.60;;;;;;5088165;28;20028;-74
2022/04/06 04:16:49;;;;;;;18.88;12.43;;;10.50;87.60;;;;;;5088058;28;20035;-78
2022/04/06 04:19:15;;;;;;;16.67;11.60;;;10.50;87.70;;;;;;5088798;28;20020;-76
2022/04/06 04:21:42;;;;;;;18.92;12.38;;;10.50;87.70;;;;;;5089223;28;20489;-75
2022/04/06 04:24:08;;;;;;;18.05;12.60;;;10.50;87.70;;;;;;5089198;28;20424;-77
2022/04/06 04:26:36;;;;;;;17.77;13.05;;;10.50;87.70;;;;;;5087401;28;20055;-76
2022/04/06 04:29:05;;;;;;;19.15;12.90;;;10.50;87.70;;;;;;5088925;28;20405;-76
2022/04/06 04:31:31;;;;;;;17.83;12.93;;;10.50;87.70;;;;;;5069055;28;20116;-76
2022/04/06 04:33:57;;;;;;;18.85;13.07;;;10.50;87.70;;;;;;5075239;28;20103;-75
2022/04/06 04:36:23;;;;;;;20.05;13.23;;;10.50;87.70;;;;;;5089182;28;20481;-76
2022/04/06 04:38:49;;;;;;;17.75;12.55;;;10.50;87.70;;;;;;5087710;28;20552;-74
2022/04/06 04:41:14;;;;;;;18.83;12.77;;;10.50;87.80;;;;;;5088932;28;20024;-75
2022/04/06 04:43:40;;;;;;;19.20;12.63;;;10.50;87.80;;;;;;5088604;28;20024;-80
2022/04/06 04:46:07;;;;;;;16.17;12.10;;;10.50;87.70;;;;;;5089093;28;20504;-76
2022/04/06 04:48:33;;;;;;;18.02;12.90;;;10.50;87.70;;;;;;5088655;28;20390;-77
2022/04/06 04:50:58;;;;;;;17.83;12.25;;;10.50;87.70;;;;;;5087409;28;20034;-76
2022/04/06 04:53:25;;;;;;;20.30;12.75;;;10.50;87.70;;;;;;5087638;28;20051;-75
2022/04/06 04:55:51;;;;;;;18.55;13.73;;;10.50;87.80;;;;;;5088807;28;20028;-75
2022/04/06 04:58:16;;;;;;;19.50;13.20;;;10.50;87.80;;;;;;5087247;28;20111;-79
2022/04/06 05:00:42;;;;;;;17.75;13.55;;;10.50;87.80;;;;;;5088543;28;20585;-76
2022/04/06 05:03:08;;;;;;;19.08;13.55;;;10.50;87.80;;;;;;5087296;28;20119;-77
2022/04/06 05:05:35;;;;;;;19.88;13.38;;;10.50;87.80;;;;;;5088778;28;20097;-77
2022/04/06 05:08:00;;;;;;;17.85;13.43;;;10.50;87.80;;;;;;5087161;28;20016;-75
2022/04/06 05:10:26;;;;;;;20.38;13.95;;;10.50;87.70;;;;;;5087614;28;20031;-74
2022/04/06 05:12:52;;;;;;;17.45;13.23;;;10.50;87.80;;;;;;5088796;28;20028;-76
2022/04/06 05:15:21;;;;;;;17.42;13.57;;;10.50;87.80;;;;;;5087538;28;20072;-75
2022/04/06 05:17:47;;;;;;;18.60;13.30;;;10.50;87.70;;;;;;5086713;28;20024;-77
2022/04/06 05:20:13;;;;;;;19.88;13.57;;;10.50;87.70;;;;;;5087381;28;20028;-75
2022/04/06 05:22:39;;;;;;;18.17;13.68;;;10.50;87.70;;;;;;5087967;28;20039;-74
2022/04/06 05:25:07;;;;;;;18.73;13.52;;;10.50;87.70;;;;;;5091587;28;20115;-75
2022/04/06 05:27:46;;;;;;;18.45;12.70;;;10.50;87.70;;;;;;5090947;28;20056;-76
2022/04/06 05:30:17;;;;;;;18.55;13.02;;;10.50;87.70;;;;;;5091132;28;20072;-76
2022/04/06 05:32:44;;;;;;;18.02;12.35;;;10.50;87.70;;;;;;5091143;28;20028;-77
2022/04/06 05:35:11;;;;;;;16.90;13.15;;;10.50;87.70;;;;;;5092314;28;20517;-80
2022/04/06 05:37:37;;;;;;;19.27;12.52;;;10.50;87.70;;;;;;5092408;28;20080;-75
2022/04/06 05:40:04;;;;;;;19.50;13.30;;;10.50;87.60;;;;;;5091788;28;20032;-77
2022/04/06 05:42:29;;;;;;;19.25;12.73;;;10.50;87.70;;;;;;5091159;28;20032;-75
2022/04/06 05:44:56;;;;;;;17.08;12.70;;;10.50;87.80;;;;;;5090962;28;20132;-77
2022/04/06 05:47:22;;;;;;;16.08;11.88;;;10.50;87.80;;;;;;5091495;28;20023;-75
2022/04/06 05:49:47;;;;;;;18.85;12.50;;;10.50;87.70;;;;;;5092128;28;20020;-75
2022/04/06 05:52:13;;;;;;;16.48;12.73;;;10.50;87.80;;;;;;5092857;28;20059;-76
2022/04/06 05:54:38;;;;;;;16.77;11.65;;;10.50;87.70;;;;;;5090235;28;20515;-76
2022/04/06 05:57:04;;;;;;;16.80;11.95;;;10.50;87.70;;;;;;5092809;28;20457;-76
2022/04/06 05:59:29;;;;;;;17.10;11.85;;;10.50;87.70;;;;;;5092977;28;20059;-75
2022/04/06 06:01:55;;;;;;;17.08;11.60;;;10.50;87.70;;;;;;5093918;28;20047;-75
2022/04/06 06:04:20;;;;;;;15.48;11.77;;;10.50;87.70;;;;;;5092894;28;20044;-76
2022/04/06 06:06:46;;;;;;;15.05;11.10;;;10.50;87.70;;;;;;5092889;28;20089;-77
2022/04/06 06:09:12;;;;;;;15.80;11.13;;;10.50;87.60;;;;;;5094156;28;20030;-75
2022/04/06 06:11:37;;;;;;;16.50;11.60;;;10.50;87.50;;;;;;5092965;28;20028;-75
2022/04/06 06:14:03;;;;;;;15.13;10.75;;;10.50;87.50;;;;;;5093175;28;20026;-76
2022/04/06 06:16:29;;;;;;;16.00;10.68;;;10.60;87.60;;;;;;5094257;28;20082;-78
2022/04/06 06:18:56;;;;;;;15.57;10.93;;;10.50;87.70;;;;;;5092958;28;20461;-76
2022/04/06 06:21:22;;;;;;;16.70;11.38;;;10.50;87.40;;;;;;5092532;28;20055;-78
2022/04/06 06:23:48;;;;;;;16.98;10.95;;;10.50;87.40;;;;;;5092750;28;20489;-77
2022/04/06 06:26:13;;;;;;;15.43;11.50;;;10.50;87.40;;;;;;5093222;28;20024;-76
2022/04/06 06:28:40;;;;;;;14.95;10.30;;;10.50;87.40;;;;;;5094137;28;20028;-75
2022/04/06 06:31:06;;;;;;;15.70;11.00;;;10.50;87.30;;;;;;5094787;28;20051;-75
2022/04/06 06:33:31;;;;;;;15.80;10.93;;;10.50;87.20;;;;;;5092806;28;20020;-76
2022/04/06 06:35:57;;;;;;;17.33;10.98;;;10.50;87.10;;;;;;5093028;28;20414;-79
2022/04/06 06:38:22;;;;;;;16.98;12.40;;;10.60;87.10;;;;;;5094380;28;20066;-76
2022/04/06 06:40:48;;;;;;;16.83;11.50;;;10.60;87.00;;;;;;5092754;28;20056;-77
2022/04/06 06:43:15;;;;;;;18.92;13.05;;;10.50;87.00;;;;;;5092965;28;20028;-75
2022/04/06 06:45:40;;;;;;;19.83;13.98;;;10.60;86.90;;;;;;5092783;28;20024;-78
2022/04/06 06:48:06;;;;;;;22.80;14.50;;;10.50;86.90;;;;;;5093811;28;20051;-76
2022/04/06 06:50:32;;;;;;;21.60;15.15;;;10.60;86.70;;;;;;5092666;28;20023;-77
2022/04/06 06:52:58;;;;;;;23.55;16.65;;;10.60;86.50;;;;;;5092517;28;20032;-76
2022/04/06 06:55:23;;;;;;;28.15;19.08;;;10.60;86.60;;;;;;5092536;28;20024;-78
2022/04/06 06:57:49;;;;;;;26.30;17.95;;;10.60;86.70;;;;;;5072033;28;20040;-77
2022/04/06 07:00:15;;;;;;;28.90;19.23;;;10.60;86.80;;;;;;5071766;28;20051;-76
2022/04/06 07:02:41;;;;;;;27.00;18.75;;;10.60;86.80;;;;;;5087438;28;20130;-77
2022/04/06 07:05:07;;;;;;;26.35;18.42;;;10.60;86.80;;;;;;5092057;28;20076;-78
2022/04/06 07:07:46;;;;;;;25.45;17.27;;;10.60;86.80;;;;;;5093033;28;20024;-76
2022/04/06 07:10:11;;;;;;;22.92;15.85;;;10.60;86.70;;;;;;5092725;28;20051;-75
2022/04/06 07:12:37;;;;;;;23.08;15.90;;;10.60;86.60;;;;;;5092077;28;20062;-77
2022/04/06 07:15:03;;;;;;;26.35;17.33;;;10.60;86.60;;;;;;5092857;28;20395;-77
2022/04/06 07:17:28;;;;;;;26.17;16.35;;;10.60;86.60;;;;;;5091697;28;20035;-79
2022/04/06 07:19:55;;;;;;;24.90;15.90;;;10.60;87.00;;;;;;5092413;28;20516;-80
2022/04/06 07:22:20;;;;;;;23.30;15.20;;;10.60;86.50;;;;;;5091984;28;20032;-81
2022/04/06 07:24:46;;;;;;;22.02;14.30;;;10.60;86.60;;;;;;5092246;28;20050;-81
2022/04/06 07:27:12;;;;;;;22.65;14.65;;;10.60;86.50;;;;;;5087036;28;20032;-77
2022/04/06 07:29:37;;;;;;;20.55;14.07;;;10.60;86.40;;;;;;5091405;28;20058;-76
2022/04/06 07:32:04;;;;;;;20.25;13.18;;;10.60;86.40;;;;;;5091271;28;20061;-76
2022/04/06 07:34:29;;;;;;;19.65;13.23;;;10.60;86.40;;;;;;5091046;28;20074;-77
2022/04/06 07:36:55;;;;;;;21.33;13.02;;;10.70;86.50;;;;;;5092321;28;20044;-78
2022/04/06 07:39:20;;;;;;;21.27;13.40;;;10.60;86.50;;;;;;5092100;28;20483;-80
2022/04/06 07:41:46;;;;;;;18.80;12.57;;;10.60;86.50;;;;;;5091810;28;20103;-78
2022/04/06 07:44:11;;;;;;;18.70;12.13;;;10.60;86.50;;;;;;5091241;28;20069;-77
2022/04/06 07:46:38;;;;;;;17.50;11.98;;;10.60;86.50;;;;;;5089862;28;20020;-76
2022/04/06 07:49:06;;;;;;;19.85;11.57;;;10.60;86.50;;;;;;5090172;28;20024;-76
2022/04/06 07:51:31;;;;;;;15.70;10.43;;;10.60;86.50;;;;;;5092085;28;20020;-76
2022/04/06 07:53:57;;;;;;;15.27;9.95;;;10.60;86.50;;;;;;5092129;28;20089;-79
2022/04/06 07:56:23;;;;;;;16.08;10.35;;;10.60;86.50;;;;;;5090813;28;20119;-79
2022/04/06 07:58:48;;;;;;;15.35;10.30;;;10.50;86.50;;;;;;5087526;28;20119;-80
2022/04/06 08:01:14;;;;;;;17.42;9.65;;;10.50;86.50;;;;;;5072601;28;20041;-77
2022/04/06 08:03:39;;;;;;;15.07;9.93;;;10.60;86.30;;;;;;5090675;28;20028;-76
2022/04/06 08:06:05;;;;;;;16.45;9.88;;;10.60;86.40;;;;;;5091655;28;20024;-77
2022/04/06 08:08:30;;;;;;;17.42;9.70;;;10.60;86.40;;;;;;5070531;28;20453;-75
2022/04/06 08:10:57;;;;;;;14.45;8.77;;;10.60;86.40;;;;;;5074013;28;20026;-75
2022/04/06 08:13:22;;;;;;;14.55;8.73;;;10.60;86.30;;;;;;5092211;28;20024;-77
2022/04/06 08:15:48;;;;;;;16.38;8.88;;;10.60;86.40;;;;;;5089581;28;20103;-75
2022/04/06 08:18:13;;;;;;;14.07;8.43;;;10.60;86.30;;;;;;5087838;28;20477;-77
2022/04/06 08:20:39;;;;;;;14.55;8.88;;;10.60;86.30;;;;;;5088981;28;20034;-76
2022/04/06 08:23:05;;;;;;;14.50;8.60;;;10.60;86.20;;;;;;5087850;28;20052;-75
2022/04/06 08:25:33;;;;;;;15.00;7.60;;;10.60;86.20;;;;;;5089081;28;20051;-75
2022/04/06 08:27:58;;;;;;;15.63;8.02;;;10.60;86.20;;;;;;5088675;28;20532;-75
2022/04/06 08:30:24;;;;;;;13.70;7.93;;;10.50;86.20;;;;;;5089290;28;20024;-78
2022/04/06 08:32:49;;;;;;;14.68;8.60;;;10.60;86.20;;;;;;5089055;28;20111;-76
2022/04/06 08:35:17;;;;;;;12.32;7.50;;;10.60;86.30;;;;;;5088062;28;20122;-76
2022/04/06 08:37:43;;;;;;;13.48;8.02;;;10.60;86.20;;;;;;5087521;28;20044;-77
2022/04/06 08:40:10;;;;;;;12.00;7.13;;;10.60;86.30;;;;;;5089395;28;20031;-78
2022/04/06 08:42:37;;;;;;;11.45;7.25;;;10.60;86.30;;;;;;5089049;28;20036;-77
2022/04/06 08:45:04;;;;;;;11.13;7.18;;;10.60;86.30;;;;;;5088098;28;20020;-78
2022/04/06 08:47:31;;;;;;;11.25;7.03;;;10.60;86.20;;;;;;5088967;28;20037;-77
2022/04/06 08:49:57;;;;;;;17.13;7.80;;;10.60;86.20;;;;;;5088969;28;20020;-77
2022/04/06 08:52:23;;;;;;;11.32;6.65;;;10.60;86.20;;;;;;5087665;28;20381;-76
2022/04/06 08:54:48;;;;;;;12.63;7.00;;;10.60;86.10;;;;;;5089134;28;20032;-76
2022/04/06 08:57:15;;;;;;;11.70;6.55;;;10.60;86.10;;;;;;5088610;28;20031;-76
2022/04/06 08:59:40;;;;;;;11.48;7.28;;;10.60;86.10;;;;;;5089057;28;20109;-76
2022/04/06 09:02:07;;;;;;;11.07;6.75;;;10.60;86.10;;;;;;5087377;28;20111;-76
2022/04/06 09:04:35;;;;;;;13.30;7.25;;;10.60;86.00;;;;;;5087373;28;20043;-75
2022/04/06 09:07:10;;;;;;;10.80;6.55;;;10.60;86.00;;;;;;5088791;28;20400;-81
2022/04/06 09:09:36;;;;;;;15.00;6.80;;;10.50;86.00;;;;;;5084405;28;20021;-77
2022/04/06 09:12:10;;;;;;;14.02;7.10;;;10.60;86.00;;;;;;5082382;28;20030;-78
2022/04/06 09:14:35;;;;;;;11.82;6.38;;;10.60;86.00;;;;;;5087349;28;20046;-76
2022/04/06 09:17:06;;;;;;;9.95;6.28;;;10.60;85.90;;;;;;5087222;28;20024;-75
2022/04/06 09:19:46;;;;;;;11.23;6.45;;;10.60;85.80;;;;;;5087764;28;20024;-77
2022/04/06 09:22:11;;;;;;;11.13;6.40;;;10.60;85.80;;;;;;5088675;28;20029;-76
2022/04/06 09:24:37;;;;;;;9.80;6.20;;;10.60;85.80;;;;;;5088609;28;20037;-76
2022/04/06 09:27:04;;;;;;;9.80;5.78;;;10.60;85.80;;;;;;5088147;28;20024;-77
2022/04/06 09:29:30;;;;;;;10.75;5.22;;;10.60;85.80;;;;;;5086635;28;20028;-77
2022/04/06 09:32:09;;;;;;;9.90;5.72;;;10.60;85.70;;;;;;5067840;28;20032;-76
2022/04/06 09:34:34;;;;;;;10.02;5.40;;;10.70;85.60;;;;;;5067145;28;20029;-77
2022/04/06 09:37:24;;;;;;;9.70;5.47;;;10.60;85.60;;;;;;5075451;28;20405;-77
2022/04/06 09:39:50;;;;;;;9.20;5.73;;;10.60;85.50;;;;;;5066511;28;20031;-80
2022/04/06 09:42:20;;;;;;;10.77;5.10;;;10.60;85.50;;;;;;5081309;28;20433;-78
2022/04/06 09:47:42;;;;;;;9.32;5.70;;;10.60;85.40;;;;;;5087805;28;20550;-77
2022/04/06 09:50:09;;;;;;;9.38;5.95;;;10.60;85.40;;;;;;5078689;28;20027;-79
2022/04/06 09:52:36;;;;;;;8.63;5.43;;;10.60;85.40;;;;;;5086025;28;20066;-83
2022/04/06 09:55:05;;;;;;;9.10;5.43;;;10.60;85.40;;;;;;5088681;28;20024;-78
2022/04/06 09:57:38;;;;;;;11.90;6.30;;;10.60;85.90;;;;;;5077389;28;20047;-78
2022/04/06 10:00:04;;;;;;;10.93;6.22;;;10.70;85.40;;;;;;5086308;28;20927;-79
2022/04/06 10:02:33;;;;;;;12.75;6.57;;;10.70;85.40;;;;;;5083989;28;20032;-80
2022/04/06 10:05:01;;;;;;;13.43;6.60;;;10.70;85.40;;;;;;5090652;28;20505;-83
2022/04/06 10:07:27;;;;;;;10.48;6.28;;;10.60;85.40;;;;;;5087909;28;20067;-81
2022/04/06 10:09:53;;;;;;;11.18;6.32;;;10.70;85.40;;;;;;5092706;28;20048;-81
2022/04/06 10:12:19;;;;;;;13.63;6.32;;;10.70;85.40;;;;;;5088031;28;20028;-78
2022/04/06 10:14:44;;;;;;;11.15;6.65;;;10.70;85.40;;;;;;5092713;28;20081;-77
2022/04/06 10:17:10;;;;;;;13.05;6.80;;;10.60;85.20;;;;;;5082673;28;20416;-78
2022/04/06 10:19:43;;;;;;;11.82;5.93;;;10.70;85.20;;;;;;5090569;28;20093;-79
2022/04/06 10:22:18;;;;;;;11.23;6.10;;;10.70;85.10;;;;;;5090431;28;20024;-79
2022/04/06 10:25:09;;;;;;;13.10;6.40;;;10.70;85.20;;;;;;5091811;28;20024;-81
2022/04/06 10:27:36;;;;;;;;;;;10.70;85.20;;;;;;5091375;28;20386;-79
2022/04/06 10:30:16;;;;;;;12.77;5.88;;;10.70;85.30;;;;;;5091411;28;19957;-79
2022/04/06 10:32:44;;;;;;;11.93;6.55;;;10.70;85.20;;;;;;5074540;28;20107;-79
2022/04/06 10:35:35;;;;;;;10.00;6.07;;;10.70;85.10;;;;;;5075409;28;20023;-79
2022/04/06 10:38:04;;;;;;;11.15;6.40;;;10.70;85.20;;;;;;5079582;28;20024;-79
2022/04/06 10:40:52;;;;;;;11.88;6.43;;;10.70;85.20;;;;;;5069339;28;20064;-83
2022/04/06 10:43:36;;;;;;;11.35;6.20;;;10.70;85.30;;;;;;5088388;28;20028;-78
2022/04/06 10:46:06;;;;;;;10.70;6.38;;;10.70;85.30;;;;;;5091151;28;20023;-78
2022/04/06 10:48:32;;;;;;;10.23;6.38;;;10.60;85.30;;;;;;5089996;28;20016;-75
2022/04/06 10:51:33;;;;;;;10.10;6.63;;;10.70;85.30;;;;;;5088713;28;20039;-82
2022/04/06 10:53:58;;;;;;;9.23;6.40;;;10.70;85.30;;;;;;5090887;28;20016;-78
2022/04/06 10:56:24;;;;;;;12.98;6.80;;;10.70;85.30;;;;;;5090781;28;20028;-78
2022/04/06 10:58:55;;;;;;;9.07;6.05;;;10.70;85.40;;;;;;5090338;28;20024;-77
2022/04/06 11:01:32;;;;;;;9.68;5.88;;;10.70;85.40;;;;;;5089497;28;20028;-78
2022/04/06 11:04:06;;;;;;;8.95;5.90;;;10.70;85.30;;;;;;5091431;28;20031;-77
2022/04/06 11:06:41;;;;;;;11.60;6.20;;;10.70;85.40;;;;;;5090756;28;20500;-77
2022/04/06 11:12:29;;;;;;;9.45;6.10;;;10.70;85.30;;;;;;5070689;28;20048;-77
2022/04/06 11:15:00;;;;;;;11.18;6.20;;;10.70;84.90;;;;;;5070668;28;20054;-76
2022/04/06 11:19:57;;;;;;;11.73;6.03;;;10.70;84.90;;;;;;5070883;28;20071;-77
2022/04/06 11:22:23;;;;;;;10.80;5.97;;;10.70;85.10;;;;;;5070423;28;20416;-76
2022/04/06 11:24:49;;;;;;;10.70;5.65;;;10.70;85.20;;;;;;5084980;28;20020;-77
2022/04/06 11:27:33;;;;;;;10.85;5.82;;;10.70;85.30;;;;;;5090175;28;20035;-80
2022/04/06 11:30:13;;;;;;;8.70;5.55;;;10.70;85.30;;;;;;5090483;28;20072;-77
2022/04/06 11:32:49;;;;;;;9.73;5.63;;;10.70;85.40;;;;;;5090721;28;20020;-77
2022/04/06 11:35:16;;;;;;;9.43;5.45;;;10.70;85.50;;;;;;5090219;28;20748;-80
2022/04/06 11:37:46;;;;;;;8.55;5.85;;;10.70;85.30;;;;;;5090187;28;20026;-76
2022/04/06 11:40:13;;;;;;;9.32;5.05;;;10.70;85.40;;;;;;5090445;28;20024;-76
2022/04/06 11:42:39;;;;;;;9.38;6.00;;;10.70;85.40;;;;;;5089958;28;20024;-76
2022/04/06 11:45:05;;;;;;;9.18;5.68;;;10.70;85.40;;;;;;5090459;28;20023;-77
2022/04/06 11:47:36;;;;;;;9.70;5.43;;;10.70;85.50;;;;;;5089751;28;20896;-76
2022/04/06 11:50:06;;;;;;;10.35;5.85;;;10.70;85.50;;;;;;5089805;28;20992;-77
2022/04/06 11:52:32;;;;;;;11.48;5.40;;;10.70;85.50;;;;;;5088563;28;20032;-78
2022/04/06 11:54:58;;;;;;;8.02;5.35;;;10.70;85.50;;;;;;5089900;28;20078;-76
2022/04/06 11:57:34;;;;;;;8.65;5.30;;;10.70;85.50;;;;;;5089350;28;20024;-76
2022/04/06 12:00:00;;;;;;;8.98;5.75;;;10.70;85.40;;;;;;5089794;28;20520;-77
2022/04/06 12:02:25;;;;;;;8.85;5.35;;;10.70;85.40;;;;;;5089619;28;20169;-77
2022/04/06 12:05:01;;;;;;;7.63;5.07;;;10.70;85.40;;;;;;5088435;28;20062;-75
2022/04/06 12:07:27;;;;;;;7.53;4.82;;;10.70;85.90;;;;;;5070890;28;20025;-77
2022/04/06 12:09:53;;;;;;;10.23;5.15;;;10.70;85.30;;;;;;5069481;28;20024;-77
2022/04/06 12:12:18;;;;;;;8.07;4.90;;;10.70;85.30;;;;;;5068187;28;20417;-80
2022/04/06 12:14:44;;;;;;;7.75;4.68;;;10.70;85.40;;;;;;5087173;28;20515;-77
2022/04/06 12:17:12;;;;;;;7.35;4.90;;;10.70;85.40;;;;;;5087990;28;20024;-76
2022/04/06 12:19:37;;;;;;;8.38;4.97;;;10.60;85.50;;;;;;5089789;28;20477;-77
2022/04/06 12:22:07;;;;;;;10.90;5.38;;;10.70;85.60;;;;;;5087963;28;20105;-78
2022/04/06 12:24:41;;;;;;;7.18;4.35;;;10.80;85.50;;;;;;5089396;28;20424;-79
2022/04/06 12:27:07;;;;;;;8.93;5.38;;;10.70;85.50;;;;;;5088983;28;20560;-77
2022/04/06 12:29:35;;;;;;;7.25;4.60;;;10.70;85.60;;;;;;5088178;28;20484;-79
2022/04/06 12:32:02;;;;;;;8.13;4.07;;;10.70;85.50;;;;;;5089107;28;20389;-77
2022/04/06 12:34:37;;;;;;;8.57;4.45;;;10.70;85.50;;;;;;5085187;28;20138;-77
2022/04/06 12:39:52;;;;;;;6.63;4.22;;;10.70;85.60;;;;;;5084049;28;20039;-76
2022/04/06 12:42:18;;;;;;;7.10;4.00;;;10.70;85.60;;;;;;5086991;28;20039;-76
2022/04/06 12:44:57;;;;;;;7.60;4.20;;;10.70;85.70;;;;;;5089228;28;20030;-77
2022/04/06 12:47:23;;;;;;;7.07;4.07;;;10.70;85.60;;;;;;5088483;28;20028;-78
2022/04/06 12:49:49;;;;;;;6.05;3.67;;;10.70;85.60;;;;;;5088584;28;20036;-76